createdAt,value
2022-11-21T00:01:28.367Z,8.89
2022-11-21T00:03:55.709Z,8.85
2022-11-21T00:06:23.668Z,8.88
2022-11-21T00:08:51.487Z,8.83
2022-11-21T00:11:18.928Z,9.02
2022-11-21T00:13:46.441Z,8.85
2022-11-21T00:16:16.097Z,8.80
2022-11-21T00:18:44.492Z,8.77
2022-11-21T00:21:18.775Z,8.78
2022-11-21T00:23:47.830Z,8.70
2022-11-21T00:26:17.328Z,8.77
2022-11-21T00:28:46.174Z,8.76
2022-11-21T00:31:25.142Z,8.78
2022-11-21T00:33:52.584Z,8.81
2022-11-21T00:36:20.055Z,8.75
2022-11-21T00:38:47.441Z,8.80
2022-11-21T00:41:14.895Z,8.79
2022-11-21T00:43:42.295Z,8.80
2022-11-21T00:46:09.577Z,8.73
2022-11-21T00:48:36.946Z,8.74
2022-11-21T00:51:04.718Z,8.78
2022-11-21T00:53:32.109Z,8.74
2022-11-21T00:55:59.594Z,8.71
2022-11-21T00:58:27.977Z,8.82
2022-11-21T01:01:13.207Z,8.77
2022-11-21T01:03:41.044Z,8.73
2022-11-21T01:06:14.405Z,8.76
2022-11-21T01:08:45.042Z,8.66
2022-11-21T01:11:19.999Z,8.66
2022-11-21T01:13:49.633Z,8.73
2022-11-21T01:16:23.273Z,8.73
2022-11-21T01:18:50.852Z,8.70
2022-11-21T01:21:28.031Z,8.75
2022-11-21T01:23:56.587Z,8.78
2022-11-21T01:26:28.842Z,8.79
2022-11-21T01:28:58.468Z,8.78
2022-11-21T01:31:30.322Z,8.85
2022-11-21T01:34:00.607Z,8.88
2022-11-21T01:36:35.055Z,8.83
2022-11-21T01:39:07.134Z,8.81
2022-11-21T01:41:43.883Z,8.95
2022-11-21T01:44:45.894Z,8.96
2022-11-21T01:47:13.431Z,8.85
2022-11-21T01:49:42.036Z,8.87
2022-11-21T01:52:30.672Z,8.94
2022-11-21T01:55:09.617Z,8.88
2022-11-21T01:57:44.922Z,8.75
2022-11-21T02:00:24.788Z,8.86
2022-11-21T02:03:00.770Z,8.78
2022-11-21T02:05:33.647Z,8.78
2022-11-21T02:08:17.219Z,8.86
2022-11-21T02:11:16.695Z,8.89
2022-11-21T02:13:44.193Z,8.82
2022-11-21T02:16:12.050Z,8.81
2022-11-21T02:18:39.521Z,8.77
2022-11-21T02:22:04.235Z,8.67
2022-11-21T02:24:47.184Z,8.42
2022-11-21T02:27:17.445Z,8.50
2022-11-21T02:29:45.885Z,8.53
2022-11-21T02:32:25.602Z,8.61
2022-11-21T02:34:52.995Z,8.58
2022-11-21T02:37:20.326Z,8.44
2022-11-21T02:39:48.904Z,8.65
2022-11-21T02:42:52.717Z,8.46
2022-11-21T02:45:43.434Z,8.58
2022-11-21T02:48:12.139Z,8.32
2022-11-21T02:50:44.522Z,8.35
2022-11-21T02:53:17.535Z,8.38
2022-11-21T02:55:45.791Z,8.35
2022-11-21T02:58:13.455Z,8.32
2022-11-21T03:00:43.073Z,8.33
2022-11-21T03:03:10.874Z,8.30
2022-11-21T03:05:39.786Z,8.34
2022-11-21T03:08:08.020Z,8.31
2022-11-21T03:10:35.652Z,8.35
2022-11-21T03:13:03.213Z,8.36
2022-11-21T03:15:34.647Z,8.45
2022-11-21T03:18:03.920Z,8.39
2022-11-21T03:20:34.627Z,8.46
2022-11-21T03:23:02.866Z,8.47
2022-11-21T03:25:30.992Z,8.35
2022-11-21T03:27:58.348Z,8.48
2022-11-21T03:30:27.542Z,8.46
2022-11-21T03:32:58.510Z,8.35
2022-11-21T03:35:26.572Z,8.39
2022-11-21T03:37:54.284Z,8.45
2022-11-21T03:40:21.776Z,8.46
2022-11-21T03:42:49.125Z,8.51
2022-11-21T03:45:16.544Z,8.55
2022-11-21T03:47:43.844Z,8.41
2022-11-21T03:50:12.093Z,8.38
2022-11-21T03:52:39.364Z,8.56
2022-11-21T03:55:07.311Z,8.62
2022-11-21T03:57:34.621Z,8.57
2022-11-21T04:00:01.952Z,8.56
2022-11-21T04:02:29.335Z,8.58
2022-11-21T04:04:56.647Z,8.60
2022-11-21T04:07:24.024Z,8.52
2022-11-21T04:09:51.387Z,8.60
2022-11-21T04:12:18.759Z,8.61
2022-11-21T04:14:46.084Z,8.57
2022-11-21T04:17:13.443Z,8.67
2022-11-21T04:19:40.795Z,8.61
2022-11-21T04:22:08.169Z,8.76
2022-11-21T04:24:35.511Z,8.62
2022-11-21T04:27:02.864Z,8.76
2022-11-21T04:29:30.216Z,8.62
2022-11-21T04:31:57.559Z,8.60
2022-11-21T04:34:24.956Z,8.63
2022-11-21T04:36:52.308Z,8.62
2022-11-21T04:39:19.646Z,8.72
2022-11-21T04:41:46.992Z,8.82
2022-11-21T04:44:14.374Z,8.74
2022-11-21T04:46:41.713Z,8.86
2022-11-21T04:49:09.009Z,8.96
2022-11-21T04:51:36.341Z,9.04
2022-11-21T04:54:03.823Z,8.97
2022-11-21T04:56:31.127Z,9.03
2022-11-21T04:58:58.563Z,8.75
2022-11-21T05:01:26.079Z,9.01
2022-11-21T05:03:53.791Z,9.01
2022-11-21T05:06:21.176Z,8.95
2022-11-21T05:08:52.239Z,8.92
2022-11-21T05:11:39.643Z,8.90
2022-11-21T05:14:07.000Z,8.95
2022-11-21T05:16:34.847Z,8.93
2022-11-21T05:19:02.275Z,8.87
2022-11-21T05:21:35.523Z,9.04
2022-11-21T05:24:02.900Z,8.78
2022-11-21T05:26:30.255Z,8.74
2022-11-21T05:28:57.595Z,8.60
2022-11-21T05:31:24.933Z,8.75
2022-11-21T05:33:52.655Z,8.87
2022-11-21T05:36:20.058Z,8.97
2022-11-21T05:38:47.397Z,8.91
2022-11-21T05:41:14.791Z,8.83
2022-11-21T05:43:48.859Z,8.76
2022-11-21T05:46:26.507Z,8.83
2022-11-21T05:48:55.403Z,8.91
2022-11-21T05:51:23.220Z,8.87
2022-11-21T05:53:50.675Z,8.89
2022-11-21T05:56:19.876Z,9.03
2022-11-21T05:58:47.632Z,8.94
2022-11-21T06:01:16.191Z,8.92
2022-11-21T06:03:43.550Z,9.02
2022-11-21T07:30:37.067Z,8.45
2022-11-21T07:33:07.190Z,8.47
2022-11-21T07:35:35.711Z,8.63
2022-11-21T07:38:04.417Z,8.65
2022-11-21T07:40:34.670Z,8.75
2022-11-21T07:43:10.671Z,8.86
2022-11-21T07:45:38.584Z,8.89
2022-11-21T07:48:07.710Z,8.97
2022-11-21T07:50:35.871Z,9.06
2022-11-21T07:53:07.991Z,9.17
2022-11-21T07:55:40.212Z,9.32
2022-11-21T07:58:17.960Z,9.29
2022-11-21T08:00:45.559Z,9.34
2022-11-21T08:03:13.529Z,9.37
2022-11-21T08:05:44.386Z,9.53
2022-11-21T08:08:13.724Z,9.65
2022-11-21T08:10:45.572Z,9.70
2022-11-21T08:13:14.432Z,9.76
2022-11-21T08:15:41.991Z,9.86
2022-11-21T08:18:15.677Z,10.05
2022-11-21T08:20:43.332Z,9.99
2022-11-21T08:23:11.254Z,10.05
2022-11-21T08:25:43.287Z,10.08
2022-11-21T08:28:12.645Z,10.35
2022-11-21T08:30:40.942Z,10.19
2022-11-21T08:33:11.677Z,10.03
2022-11-21T08:35:39.577Z,10.07
2022-11-21T08:38:07.420Z,9.84
2022-11-21T08:40:37.851Z,9.86
2022-11-21T08:43:10.808Z,9.96
2022-11-21T08:45:39.838Z,9.95
2022-11-21T08:48:12.618Z,9.95
2022-11-21T08:50:40.146Z,10.07
2022-11-21T08:53:07.602Z,10.08
2022-11-21T08:55:34.938Z,10.34
2022-11-21T08:58:02.271Z,10.27
2022-11-21T09:00:29.859Z,10.50
2022-11-21T09:02:57.139Z,10.41
2022-11-21T09:05:24.701Z,10.56
2022-11-21T09:08:00.066Z,10.53
2022-11-21T09:10:29.099Z,10.52
2022-11-21T09:12:59.964Z,10.52
2022-11-21T09:15:47.921Z,10.41
2022-11-21T09:18:15.397Z,10.53
2022-11-21T09:20:44.928Z,10.54
2022-11-21T09:23:16.684Z,10.73
2022-11-21T09:25:45.341Z,10.82
2022-11-21T09:28:14.736Z,10.81
2022-11-21T09:30:43.355Z,10.85
2022-11-21T09:33:17.030Z,11.00
2022-11-21T09:35:44.923Z,11.00
2022-11-21T09:38:12.736Z,10.87
2022-11-21T09:40:47.666Z,11.22
2022-11-21T09:43:55.739Z,11.41
2022-11-21T09:46:32.569Z,11.61
2022-11-21T09:49:05.083Z,11.87
2022-11-21T09:51:34.727Z,12.22
2022-11-21T09:54:16.876Z,12.49
2022-11-21T09:56:45.384Z,12.47
2022-11-21T09:59:38.873Z,12.36
2022-11-21T10:02:21.500Z,12.72
2022-11-21T10:04:50.486Z,12.70
2022-11-21T10:07:32.584Z,12.67
2022-11-21T10:10:31.484Z,12.67
2022-11-21T10:14:06.721Z,12.62
2022-11-21T10:17:16.326Z,12.58
2022-11-21T10:20:06.834Z,12.58
2022-11-21T10:23:46.626Z,12.57
2022-11-21T10:26:53.561Z,12.69
2022-11-21T10:29:36.183Z,12.74
2022-11-21T10:32:31.364Z,12.87
2022-11-21T10:35:37.617Z,12.91
2022-11-21T10:38:29.225Z,12.99
2022-11-21T10:42:01.000Z,13.25
2022-11-21T10:44:50.451Z,13.31
2022-11-21T10:47:31.114Z,13.16
2022-11-21T10:50:09.846Z,13.17
2022-11-21T10:53:34.743Z,13.05
2022-11-21T10:56:13.156Z,13.18
2022-11-21T10:58:53.968Z,13.31
2022-11-21T11:01:35.421Z,13.26
2022-11-21T11:04:28.601Z,13.17
2022-11-21T11:06:57.463Z,13.00
2022-11-21T11:09:34.346Z,13.04
2022-11-21T11:12:50.048Z,13.01
2022-11-21T11:15:26.970Z,13.01
2022-11-21T11:18:08.851Z,13.11
2022-11-21T11:20:45.549Z,13.27
2022-11-21T11:23:27.722Z,13.24
2022-11-21T11:26:00.458Z,13.16
2022-11-21T11:28:36.969Z,13.30
2022-11-21T11:31:04.639Z,13.44
2022-11-21T11:33:38.029Z,13.49
2022-11-21T11:36:34.470Z,13.36
2022-11-21T11:39:33.476Z,13.33
2022-11-21T11:43:45.010Z,13.32
2022-11-21T11:46:47.243Z,13.10
2022-11-21T11:50:13.662Z,13.08
2022-11-21T11:53:20.293Z,12.96
2022-11-21T11:56:16.520Z,12.92
2022-11-21T11:59:21.678Z,12.94
2022-11-21T12:02:24.273Z,12.85
2022-11-21T12:05:26.956Z,12.81
2022-11-21T12:08:42.737Z,12.91
2022-11-21T12:12:37.721Z,12.94
2022-11-21T12:15:58.478Z,13.09
2022-11-21T12:19:13.760Z,13.14
2022-11-21T12:21:50.144Z,13.11
2022-11-21T12:24:23.079Z,13.15
2022-11-21T12:27:31.295Z,13.06
2022-11-21T12:31:11.085Z,13.10
2022-11-21T12:34:12.590Z,13.12
2022-11-21T12:37:19.296Z,13.21
2022-11-21T12:40:23.063Z,13.31
2022-11-21T12:43:37.735Z,13.07
2022-11-21T12:46:38.127Z,13.00
2022-11-21T12:50:19.400Z,13.06
2022-11-21T12:53:46.938Z,13.07
2022-11-21T12:56:51.527Z,12.69
2022-11-21T12:59:19.603Z,12.69
2022-11-21T13:02:22.904Z,12.58
2022-11-21T13:04:51.238Z,12.58
2022-11-21T13:07:20.282Z,12.50
2022-11-21T13:09:52.968Z,12.49
2022-11-21T13:12:47.912Z,12.61
2022-11-21T13:15:38.166Z,12.36
2022-11-21T13:18:40.303Z,12.33
2022-11-21T13:21:50.540Z,12.58
2022-11-21T13:24:45.564Z,12.47
2022-11-21T13:27:43.033Z,12.48
2022-11-21T13:30:15.149Z,12.45
2022-11-21T13:32:50.391Z,12.27
2022-11-21T13:35:20.531Z,12.37
2022-11-21T13:38:06.300Z,12.32
2022-11-21T13:41:04.641Z,12.23
2022-11-21T13:43:34.235Z,12.20
2022-11-21T13:46:01.996Z,12.13
2022-11-21T13:48:39.620Z,12.27
2022-11-21T13:51:35.748Z,12.33
2022-11-21T13:54:59.043Z,12.20
2022-11-21T13:58:15.088Z,12.11
2022-11-21T14:01:54.063Z,12.14
2022-11-21T14:04:48.784Z,12.10
2022-11-21T14:07:35.565Z,12.12
2022-11-21T14:10:25.265Z,12.01
2022-11-21T14:12:55.275Z,12.19
2022-11-21T14:16:21.706Z,12.01
2022-11-21T14:18:49.579Z,12.07
2022-11-21T14:21:35.239Z,12.02
2022-11-21T14:24:14.984Z,12.08
2022-11-21T14:26:50.982Z,12.07
2022-11-21T14:29:40.178Z,12.04
2022-11-21T14:32:15.430Z,12.16
2022-11-21T14:34:43.033Z,12.04
2022-11-21T14:37:13.671Z,11.94
2022-11-21T14:39:44.875Z,11.89
2022-11-21T14:42:16.858Z,11.86
2022-11-21T14:44:44.669Z,12.01
2022-11-21T14:47:25.632Z,11.96
2022-11-21T14:49:58.677Z,11.92
2022-11-21T14:52:33.446Z,11.87
2022-11-21T14:55:29.299Z,11.77
2022-11-21T14:57:57.313Z,11.63
2022-11-21T15:00:58.492Z,11.62
2022-11-21T15:03:23.864Z,11.56
2022-11-21T15:06:08.334Z,11.54
2022-11-21T15:11:47.224Z,11.37
2022-11-21T15:14:42.346Z,11.39
2022-11-21T15:17:20.453Z,11.22
2022-11-21T15:20:19.455Z,11.25
2022-11-21T15:22:49.757Z,11.19
2022-11-21T15:25:45.479Z,11.08
2022-11-21T15:28:18.711Z,11.15
2022-11-21T15:30:46.111Z,11.14
2022-11-21T15:33:19.720Z,11.11
2022-11-21T15:35:56.975Z,11.05
2022-11-21T15:39:01.019Z,11.07
2022-11-21T15:41:37.074Z,11.02
2022-11-21T15:44:04.268Z,11.07
2022-11-21T15:46:41.864Z,10.94
2022-11-21T15:52:10.144Z,10.97
2022-11-21T15:54:38.183Z,10.94
2022-11-21T15:57:05.547Z,10.80
2022-11-21T15:57:13.221Z,10.93
2022-11-21T15:59:32.996Z,10.84
2022-11-21T16:02:00.812Z,10.85
2022-11-21T16:04:28.131Z,10.90
2022-11-21T16:07:04.473Z,10.88
2022-11-21T16:09:34.550Z,10.87
2022-11-21T16:12:02.019Z,10.90
2022-11-21T16:14:29.323Z,10.96
2022-11-21T16:16:56.737Z,10.96
2022-11-21T16:19:24.044Z,10.83
2022-11-21T16:21:51.433Z,10.88
2022-11-21T16:24:18.842Z,10.80
2022-11-21T16:26:47.072Z,10.82
2022-11-21T16:29:14.559Z,10.86
2022-11-21T16:31:41.985Z,10.72
2022-11-21T16:34:09.345Z,10.81
2022-11-21T16:36:36.939Z,10.82
2022-11-21T16:39:10.006Z,10.85
2022-11-21T16:41:41.127Z,10.87
2022-11-21T16:44:16.171Z,10.86
2022-11-21T16:46:48.141Z,10.83
2022-11-21T16:49:15.906Z,10.80
2022-11-21T16:51:43.277Z,10.87
2022-11-21T16:54:10.689Z,10.77
2022-11-21T16:56:38.168Z,10.86
2022-11-21T16:59:05.586Z,10.88
2022-11-21T17:01:33.158Z,10.85
2022-11-21T17:04:00.628Z,10.81
2022-11-21T17:06:31.324Z,10.79
2022-11-21T17:09:02.729Z,10.80
2022-11-21T17:11:31.956Z,10.71
2022-11-21T17:14:06.743Z,10.69
2022-11-21T17:16:35.675Z,10.65
2022-11-21T17:19:04.906Z,10.79
2022-11-21T17:21:34.015Z,10.70
2022-11-21T17:24:01.395Z,10.72
2022-11-21T17:26:30.245Z,10.66
2022-11-21T17:29:05.128Z,10.68
2022-11-21T17:31:33.095Z,10.69
2022-11-21T17:34:01.331Z,10.66
2022-11-21T17:36:31.071Z,10.64
2022-11-21T17:38:58.603Z,10.68
2022-11-21T17:41:26.679Z,10.68
2022-11-21T17:43:57.924Z,10.69
2022-11-21T17:46:26.155Z,10.68
2022-11-21T17:48:58.347Z,10.68
2022-11-21T17:51:34.393Z,10.80
2022-11-21T17:54:02.871Z,10.83
2022-11-21T17:56:36.439Z,10.71
2022-11-21T17:59:07.466Z,10.73
2022-11-21T18:01:35.373Z,10.67
2022-11-21T18:04:10.353Z,10.77
2022-11-21T18:06:42.135Z,10.72
2022-11-21T18:09:11.964Z,10.77
2022-11-21T18:11:40.791Z,10.64
2022-11-21T18:14:11.723Z,10.67
2022-11-21T18:16:43.697Z,10.69
2022-11-21T18:19:15.223Z,10.73
2022-11-21T18:21:42.735Z,10.73
2022-11-21T18:24:10.225Z,10.74
2022-11-21T18:26:39.465Z,10.74
2022-11-21T18:31:57.171Z,10.66
2022-11-21T18:34:24.564Z,10.62
2022-11-21T18:36:52.187Z,10.68
2022-11-21T18:39:19.978Z,10.60
2022-11-21T18:41:47.419Z,10.65
2022-11-21T18:44:21.492Z,10.58
2022-11-21T18:46:49.974Z,10.49
2022-11-21T18:49:17.996Z,10.65
2022-11-21T18:51:45.607Z,10.51
2022-11-21T18:54:13.134Z,10.43
2022-11-21T18:56:40.678Z,10.53
2022-11-21T18:59:08.224Z,10.43
2022-11-21T19:01:39.323Z,10.42
2022-11-21T19:04:07.216Z,10.27
2022-11-21T19:06:35.556Z,10.24
2022-11-21T19:09:04.228Z,10.29
2022-11-21T19:11:31.748Z,10.15
2022-11-21T19:14:00.794Z,10.16
2022-11-21T19:16:31.473Z,10.11
2022-11-21T19:19:32.998Z,10.20
2022-11-21T19:21:47.243Z,9.99
2022-11-21T19:24:16.518Z,10.13
2022-11-21T19:26:43.895Z,10.16
2022-11-21T19:29:12.843Z,10.16
2022-11-21T19:31:45.180Z,10.13
2022-11-21T19:34:16.936Z,10.16
2022-11-21T19:36:45.511Z,10.18
2022-11-21T19:39:13.681Z,10.08
2022-11-21T19:41:41.407Z,9.94
2022-11-21T19:44:09.082Z,9.91
2022-11-21T19:46:39.419Z,10.05
2022-11-21T19:49:08.545Z,9.94
2022-11-21T19:51:41.790Z,9.95
2022-11-21T19:54:13.615Z,9.84
2022-11-21T19:56:41.063Z,9.86
2022-11-21T19:59:13.455Z,9.80
2022-11-21T20:01:41.347Z,9.72
2022-11-21T20:04:10.695Z,9.78
2022-11-21T20:06:42.494Z,9.74
2022-11-21T20:09:15.843Z,9.72
2022-11-21T20:11:48.275Z,9.78
2022-11-21T20:14:21.493Z,9.74
2022-11-21T20:16:52.853Z,9.77
2022-11-21T20:19:24.643Z,9.75
2022-11-21T20:21:52.699Z,9.77
2022-11-21T20:24:20.219Z,9.81
2022-11-21T20:26:47.731Z,9.71
2022-11-21T20:29:16.372Z,9.60
2022-11-21T20:31:44.451Z,9.59
2022-11-21T20:34:13.277Z,9.65
2022-11-21T20:36:41.278Z,9.63
2022-11-21T20:39:18.830Z,9.52
2022-11-21T20:41:48.078Z,9.67
2022-11-21T20:47:10.840Z,9.55
2022-11-21T20:49:38.214Z,9.62
2022-11-21T20:54:55.325Z,9.51
2022-11-21T20:57:22.760Z,9.57
2022-11-21T20:59:50.131Z,9.60
2022-11-21T21:02:17.510Z,9.48
2022-11-21T21:04:44.825Z,9.63
2022-11-21T21:07:12.295Z,9.47
2022-11-21T21:09:39.808Z,9.60
2022-11-21T21:12:07.388Z,9.57
2022-11-21T21:14:34.900Z,9.53
2022-11-21T21:17:02.245Z,9.56
2022-11-21T21:19:29.789Z,9.51
2022-11-21T21:21:57.437Z,9.45
2022-11-21T21:24:24.827Z,9.53
2022-11-21T21:26:52.452Z,9.63
2022-11-21T21:29:21.657Z,9.55
2022-11-21T21:31:51.903Z,9.56
2022-11-21T21:34:22.631Z,9.64
2022-11-21T21:36:51.448Z,9.64
2022-11-21T21:39:18.964Z,9.75
2022-11-21T21:41:47.381Z,9.72
2022-11-21T21:44:16.325Z,9.61
2022-11-21T21:46:44.326Z,9.56
2022-11-21T21:49:12.295Z,9.67
2022-11-21T21:51:40.086Z,9.63
2022-11-21T21:54:18.355Z,9.63
2022-11-21T21:56:47.055Z,9.59
2022-11-21T21:59:15.416Z,9.61
2022-11-21T22:01:42.897Z,9.63
2022-11-21T22:04:12.690Z,9.63
2022-11-21T22:06:40.156Z,9.50
2022-11-21T22:09:07.507Z,9.56
2022-11-21T22:11:38.433Z,9.61
2022-11-21T22:14:13.949Z,9.65
2022-11-21T22:16:42.968Z,9.57
2022-11-21T22:19:10.443Z,9.49
2022-11-21T22:21:38.624Z,9.46
2022-11-21T22:24:25.463Z,9.53
2022-11-21T22:26:53.949Z,9.60
2022-11-21T22:29:21.307Z,9.63
2022-11-21T22:31:51.060Z,9.66
2022-11-21T22:34:23.869Z,9.68
2022-11-21T22:36:52.640Z,9.71
2022-11-21T22:39:20.431Z,9.70
2022-11-21T22:41:49.193Z,9.79
2022-11-21T22:44:16.952Z,9.77
2022-11-21T22:46:45.371Z,9.76
2022-11-21T22:49:13.185Z,9.80
2022-11-21T22:51:41.130Z,9.68
2022-11-21T22:54:09.244Z,9.85
2022-11-21T22:56:37.136Z,9.91
2022-11-21T22:59:07.002Z,9.79
2022-11-21T23:01:35.558Z,9.86
2022-11-21T23:04:04.987Z,9.95
2022-11-21T23:06:32.417Z,9.98
2022-11-21T23:08:59.838Z,9.97
2022-11-21T23:11:36.199Z,9.92
2022-11-21T23:14:07.959Z,9.90
2022-11-21T23:16:35.403Z,9.93
2022-11-21T23:19:02.744Z,9.69
2022-11-21T23:21:30.462Z,9.67
2022-11-21T23:23:58.392Z,9.77
2022-11-21T23:26:25.766Z,9.79
2022-11-21T23:28:53.154Z,9.76
2022-11-21T23:31:20.555Z,9.82
2022-11-21T23:33:47.938Z,9.83
2022-11-21T23:36:15.300Z,9.93
2022-11-21T23:38:42.860Z,9.98
2022-11-21T23:41:10.593Z,9.97
2022-11-21T23:43:38.464Z,10.04
2022-11-21T23:46:05.932Z,9.97
2022-11-21T23:48:33.318Z,9.96
2022-11-21T23:51:01.190Z,9.97
2022-11-21T23:53:28.651Z,9.93
2022-11-21T23:55:56.238Z,9.92
2022-11-21T23:58:23.700Z,10.00
